sim
Sign-in with your pilot id or email,
or register
Callsign
Passwort

Schedule Details

Flight Number: EWG1917 (2)
Departure: Dusseldorf International Airport (EDDL) at 15:55
Arrival: Munich Airport (EDDM) at 17:10
Route: Eurowings Passenger Schedule. Enter filed route here before submitting Pirep.

Weather Information
Getting current METAR information for EDDL 190220Z 03003KT CAVOK 10/06 Q1019 NOSIG
Getting current METAR information for EDDM 190220Z VRB02KT CAVOK 05/03 Q1021 NOSIG

Schedule Frequency

Route Map